Time;durP1;ratioP1;P1;durP2;ratioP2;P2;SDS_P1;SDS_P2;PMS_P1;PMS_P2;Temp;Humidity;BMP_temperature;BMP_pressure;BME280_temperature;BME280_humidity;BME280_pressure;Samples;Min_cycle;Max_cycle;Signal;HPM_P1;HPM_P2
2023/05/29 00:00:06;;;;;;;7.40;4.70;;;;;;;11.97;62.24;101555.84;843631;23;1116;-79
2023/05/29 00:00:31;;;;;;;9.07;4.80;;;;;;;11.95;62.13;101560.16;843315;23;1050;-78
2023/05/29 00:00:52;;;;;;;8.98;4.70;;;;;;;11.98;62.34;101564.59;840733;23;1021;-78
2023/05/29 00:01:13;;;;;;;9.57;4.60;;;;;;;11.95;62.21;101562.75;845338;23;981;-79
2023/05/29 00:01:35;;;;;;;8.23;4.40;;;;;;;11.93;62.02;101559.22;839744;23;1345;-78
2023/05/29 00:01:56;;;;;;;7.88;4.55;;;;;;;11.97;62.37;101561.09;835376;23;1098;-79
2023/05/29 00:02:16;;;;;;;7.33;4.63;;;;;;;11.96;62.42;101561.94;837260;23;971;-78
2023/05/29 00:02:37;;;;;;;7.10;4.70;;;;;;;11.87;62.30;101546.78;843720;23;1181;-79
2023/05/29 00:02:58;;;;;;;7.13;4.47;;;;;;;11.92;62.41;101552.19;843949;23;1212;-78
2023/05/29 00:03:19;;;;;;;8.18;4.88;;;;;;;11.98;62.63;101565.47;843807;23;1192;-79
2023/05/29 00:03:40;;;;;;;7.85;4.75;;;;;;;11.90;62.63;101556.47;841104;23;1049;-78
2023/05/29 00:04:01;;;;;;;8.18;4.70;;;;;;;11.83;62.66;101541.41;835661;23;1138;-78
2023/05/29 00:04:21;;;;;;;7.37;4.70;;;;;;;11.86;62.57;101554.59;845217;23;1093;-79
2023/05/29 00:04:42;;;;;;;14.77;5.10;;;;;;;11.83;62.68;101547.53;844903;23;1095;-79
2023/05/29 00:05:03;;;;;;;14.30;4.90;;;;;;;11.91;62.96;101563.47;843590;23;1270;-79
2023/05/29 00:05:24;;;;;;;14.43;4.63;;;;;;;11.82;62.76;101544.84;845189;23;732;-79
2023/05/29 00:05:44;;;;;;;6.05;4.30;;;;;;;11.86;62.92;101554.59;839430;23;1394;-77
2023/05/29 00:06:05;;;;;;;6.57;4.40;;;;;;;11.91;63.33;101568.72;843754;23;1175;-78
2023/05/29 00:06:26;;;;;;;6.35;4.60;;;;;;;11.83;62.99;101549.25;843810;23;1104;-77
2023/05/29 00:06:47;;;;;;;7.30;4.60;;;;;;;11.83;63.29;101559.69;840237;23;1017;-77
2023/05/29 00:07:08;;;;;;;6.70;4.30;;;;;;;11.85;63.02;101558.94;843762;23;1282;-77
2023/05/29 00:07:30;;;;;;;7.22;4.30;;;;;;;11.76;63.32;101549.06;839572;23;1367;-77
2023/05/29 00:07:50;;;;;;;7.30;4.43;;;;;;;11.83;63.47;101564.94;843616;23;1306;-77
2023/05/29 00:08:11;;;;;;;7.90;4.57;;;;;;;11.74;63.22;101550.69;839085;23;1152;-77
2023/05/29 00:08:32;;;;;;;6.85;4.35;;;;;;;11.76;63.30;101556.00;841239;23;771;-77
2023/05/29 00:08:52;;;;;;;5.68;4.28;;;;;;;11.76;63.43;101562.13;836949;23;1066;-77
2023/05/29 00:09:13;;;;;;;6.25;4.38;;;;;;;11.72;63.50;101552.38;845190;23;990;-77
2023/05/29 00:09:34;;;;;;;6.82;4.55;;;;;;;11.74;63.64;101555.94;843869;23;1135;-77
2023/05/29 00:09:55;;;;;;;7.00;4.50;;;;;;;11.71;63.59;101555.81;844986;23;992;-78
2023/05/29 00:10:16;;;;;;;6.45;4.30;;;;;;;11.71;63.56;101553.22;842687;23;1213;-77
2023/05/29 00:10:37;;;;;;;6.15;4.13;;;;;;;11.77;63.44;101566.50;849292;23;787;-78
2023/05/29 00:10:58;;;;;;;8.00;4.50;;;;;;;11.79;63.48;101575.28;839125;23;1267;-78
2023/05/29 00:11:18;;;;;;;7.47;4.47;;;;;;;11.68;63.65;101555.69;839774;23;1159;-77
2023/05/29 00:11:40;;;;;;;6.75;4.40;;;;;;;11.75;63.52;101567.28;841097;23;1909;-80
2023/05/29 00:12:01;;;;;;;4.60;3.95;;;;;;;11.76;63.70;101569.97;838067;23;1344;-77
2023/05/29 00:12:22;;;;;;;5.20;4.30;;;;;;;11.78;63.96;101578.75;837060;23;1174;-76
2023/05/29 00:12:43;;;;;;;5.57;4.40;;;;;;;11.74;63.87;101575.97;835522;23;1205;-77
2023/05/29 00:13:04;;;;;;;5.72;4.40;;;;;;;11.68;63.69;101565.28;839655;23;1164;-77
2023/05/29 00:13:24;;;;;;;6.63;4.50;;;;;;;11.71;64.15;101571.53;841288;23;804;-78
2023/05/29 00:13:45;;;;;;;7.47;4.78;;;;;;;11.67;64.08;101559.16;844898;23;1084;-77
2023/05/29 00:14:06;;;;;;;8.35;4.68;;;;;;;11.73;64.17;101577.69;845153;23;1024;-77
2023/05/29 00:14:27;;;;;;;7.40;4.68;;;;;;;11.68;64.02;101571.38;841133;23;776;-78
2023/05/29 00:14:48;;;;;;;6.93;4.72;;;;;;;11.74;64.00;101587.31;835585;23;1156;-77
2023/05/29 00:15:10;;;;;;;7.70;5.10;;;;;;;11.68;64.13;101575.75;839851;23;1362;-78
2023/05/29 00:15:31;;;;;;;7.78;4.90;;;;;;;11.66;64.31;101567.84;841245;23;771;-77
2023/05/29 00:15:52;;;;;;;7.70;4.90;;;;;;;11.70;64.17;101576.69;839498;23;1045;-79
2023/05/29 00:16:13;;;;;;;6.72;4.80;;;;;;;11.68;64.45;101579.22;837288;23;977;-80
2023/05/29 00:16:34;;;;;;;7.60;4.80;;;;;;;11.73;64.63;101582.91;843910;23;1061;-78
2023/05/29 00:16:56;;;;;;;7.28;4.60;;;;;;;11.69;64.33;101582.75;842971;23;1300;-78
2023/05/29 00:17:17;;;;;;;6.95;4.72;;;;;;;11.63;64.38;101568.56;839694;23;1020;-77
2023/05/29 00:17:39;;;;;;;7.43;4.75;;;;;;;11.74;64.43;101575.97;837179;23;946;-78
2023/05/29 00:18:01;;;;;;;7.25;4.72;;;;;;;11.74;64.46;101582.06;837002;23;950;-79
2023/05/29 00:18:22;;;;;;;8.10;4.65;;;;;;;11.74;64.54;101587.31;835554;23;1402;-77
2023/05/29 00:18:46;;;;;;;7.68;4.68;;;;;;;11.66;64.50;101567.84;839523;23;1126;-77
2023/05/29 00:19:08;;;;;;;7.82;4.60;;;;;;;11.76;64.58;101585.66;841055;23;1051;-78
2023/05/29 00:19:29;;;;;;;7.55;4.70;;;;;;;11.73;64.65;101585.53;843091;23;1400;-78
2023/05/29 00:19:50;;;;;;;7.87;4.73;;;;;;;11.75;64.75;101583.84;840763;23;994;-78
2023/05/29 00:20:11;;;;;;;6.38;4.60;;;;;;;11.71;64.82;101581.97;839726;23;1272;-78
2023/05/29 00:20:34;;;;;;;8.20;4.72;;;;;;;11.71;64.57;101576.75;835761;23;1213;-76
2023/05/29 00:20:54;;;;;;;8.63;4.85;;;;;;;11.70;64.80;101567.13;836790;23;987;-77
2023/05/29 00:21:16;;;;;;;9.77;5.13;;;;;;;11.78;64.76;101589.22;841140;23;1198;-77
2023/05/29 00:21:37;;;;;;;7.82;5.00;;;;;;;11.70;65.01;101580.19;845315;23;813;-77
2023/05/29 00:21:58;;;;;;;7.95;5.00;;;;;;;11.80;64.58;101586.63;845071;23;1069;-78
2023/05/29 00:22:19;;;;;;;7.50;4.90;;;;;;;11.69;64.88;101575.81;843724;23;1132;-78
2023/05/29 00:22:40;;;;;;;8.10;5.10;;;;;;;11.76;64.73;101590.00;841038;23;930;-78
2023/05/29 00:23:05;;;;;;;6.82;4.50;;;;;;;11.73;65.01;101572.44;838709;23;1321;-78
2023/05/29 00:23:26;;;;;;;6.50;4.32;;;;;;;11.61;64.90;101564.16;839033;23;911;-79
2023/05/29 00:23:47;;;;;;;5.57;4.22;;;;;;;11.61;65.03;101564.16;840791;23;1361;-78
2023/05/29 00:24:08;;;;;;;6.10;4.60;;;;;;;11.60;65.15;101572.81;839752;23;1278;-78
2023/05/29 00:24:28;;;;;;;7.90;4.80;;;;;;;11.67;65.12;101580.06;837215;23;780;-78
2023/05/29 00:24:49;;;;;;;7.93;5.10;;;;;;;11.58;65.22;101564.91;836797;23;997;-77
2023/05/29 00:25:10;;;;;;;7.50;5.00;;;;;;;11.63;65.34;101572.94;837279;23;930;-78
2023/05/29 00:25:30;;;;;;;6.10;4.70;;;;;;;11.58;65.48;101570.16;837434;23;731;-78
2023/05/29 00:25:51;;;;;;;6.18;4.47;;;;;;;11.55;65.64;101566.53;839486;23;1141;-78
2023/05/29 00:26:12;;;;;;;5.97;4.40;;;;;;;11.56;65.52;101565.69;841278;23;1077;-77
2023/05/29 00:26:34;;;;;;;6.57;4.45;;;;;;;11.62;65.79;101584.22;841098;23;879;-77
2023/05/29 00:26:55;;;;;;;7.45;4.68;;;;;;;11.58;65.64;101569.25;844172;23;1039;-77
2023/05/29 00:27:16;;;;;;;7.47;4.70;;;;;;;11.60;65.95;101578.03;839324;23;1207;-78
2023/05/29 00:27:37;;;;;;;7.37;4.80;;;;;;;11.62;66.00;101581.63;845200;23;724;-78
2023/05/29 00:27:58;;;;;;;7.32;4.85;;;;;;;11.56;65.64;101573.53;844941;23;983;-78
2023/05/29 00:28:18;;;;;;;6.88;4.90;;;;;;;11.59;65.93;101576.25;847779;23;1323;-78
2023/05/29 00:28:39;;;;;;;8.00;4.85;;;;;;;11.50;65.60;101561.13;849108;23;914;-77
2023/05/29 00:29:00;;;;;;;7.63;4.68;;;;;;;11.61;66.15;101587.69;848874;23;1269;-79
2023/05/29 00:29:22;;;;;;;8.30;4.87;;;;;;;11.52;65.81;101565.59;847717;23;1328;-79
2023/05/29 00:29:42;;;;;;;8.40;4.93;;;;;;;11.48;66.42;101562.78;842915;23;1362;-78
2023/05/29 00:30:04;;;;;;;8.60;4.88;;;;;;;11.59;66.24;101586.72;847616;23;1148;-78
2023/05/29 00:30:24;;;;;;;9.07;5.20;;;;;;;11.49;66.49;101565.47;843441;23;1220;-77
2023/05/29 00:30:45;;;;;;;9.40;5.40;;;;;;;11.51;66.32;101579.47;847424;23;1183;-77
2023/05/29 00:31:06;;;;;;;9.70;5.20;;;;;;;11.60;66.69;101580.63;845395;23;1048;-78
2023/05/29 00:31:27;;;;;;;8.60;4.60;;;;;;;11.60;66.25;101585.88;841514;23;831;-79
2023/05/29 00:31:48;;;;;;;7.47;4.20;;;;;;;11.49;66.40;101570.69;835642;23;1919;-78
2023/05/29 00:32:09;;;;;;;7.57;4.57;;;;;;;11.52;66.41;101572.53;835122;23;1199;-78
2023/05/29 00:32:30;;;;;;;7.18;4.50;;;;;;;11.48;66.47;101578.47;837599;23;826;-78
2023/05/29 00:32:52;;;;;;;7.00;4.60;;;;;;;11.46;66.63;101567.97;841035;23;1012;-78
2023/05/29 00:33:13;;;;;;;6.60;4.60;;;;;;;11.49;66.67;101580.28;843825;23;1123;-78
2023/05/29 00:33:34;;;;;;;7.00;4.70;;;;;;;11.47;66.81;101582.81;840112;23;1247;-78
2023/05/29 00:33:55;;;;;;;7.50;4.80;;;;;;;11.45;66.89;101581.88;839731;23;1132;-78
2023/05/29 00:34:15;;;;;;;7.00;4.53;;;;;;;11.54;66.70;101593.50;845338;23;992;-77
2023/05/29 00:34:36;;;;;;;6.50;4.28;;;;;;;11.46;66.89;101583.66;845510;23;787;-78
2023/05/29 00:34:57;;;;;;;7.97;4.40;;;;;;;11.43;66.84;101580.91;845116;23;1202;-78
2023/05/29 00:35:18;;;;;;;8.47;4.40;;;;;;;11.42;67.05;101573.03;839891;23;1163;-78
2023/05/29 00:35:38;;;;;;;8.40;4.75;;;;;;;11.44;66.92;101585.28;835918;23;1335;-77
2023/05/29 00:35:59;;;;;;;7.63;4.60;;;;;;;11.44;66.95;101582.69;841151;23;1073;-78
2023/05/29 00:36:20;;;;;;;7.57;4.70;;;;;;;11.48;67.00;101591.53;839877;23;1218;-79
2023/05/29 00:36:41;;;;;;;8.10;4.57;;;;;;;11.49;67.11;101596.81;839900;23;1068;-78
2023/05/29 00:37:02;;;;;;;10.60;4.70;;;;;;;11.36;67.01;101568.44;844626;23;1082;-78
2023/05/29 00:37:23;;;;;;;11.23;4.72;;;;;;;11.45;67.27;101594.94;845513;23;960;-78
2023/05/29 00:37:43;;;;;;;10.90;4.75;;;;;;;11.44;67.14;101592.28;839231;23;1282;-78
2023/05/29 00:38:04;;;;;;;8.60;4.80;;;;;;;11.38;67.46;101587.72;835936;23;1156;-76
2023/05/29 00:38:25;;;;;;;8.77;4.65;;;;;;;11.45;67.41;101597.56;840025;23;1160;-78
2023/05/29 00:38:46;;;;;;;9.00;4.80;;;;;;;11.37;67.44;101583.31;841101;23;1083;-77
2023/05/29 00:39:06;;;;;;;8.87;4.67;;;;;;;11.31;67.42;101575.25;839906;23;1225;-78
2023/05/29 00:39:27;;;;;;;8.55;4.65;;;;;;;11.32;67.41;101575.28;841341;23;822;-77
2023/05/29 00:39:49;;;;;;;9.40;4.70;;;;;;;11.43;67.67;101591.38;839381;23;1267;-77
2023/05/29 00:40:11;;;;;;;9.50;4.50;;;;;;;11.38;67.60;101593.81;839968;23;1407;-78
2023/05/29 00:40:31;;;;;;;9.35;4.65;;;;;;;11.34;67.43;101576.25;840231;23;1394;-78
2023/05/29 00:40:52;;;;;;;8.07;4.30;;;;;;;11.33;67.46;101578.78;843705;23;1131;-78
2023/05/29 00:41:15;;;;;;;10.10;4.70;;;;;;;11.42;67.43;101600.03;847797;23;1073;-78
2023/05/29 00:41:36;;;;;;;11.07;4.78;;;;;;;11.35;67.50;101593.69;844267;23;1558;-78
2023/05/29 00:41:57;;;;;;;9.70;4.70;;;;;;;11.38;67.33;101599.03;841276;23;950;-78
2023/05/29 00:42:17;;;;;;;7.22;4.40;;;;;;;11.39;67.67;101605.16;840099;23;1183;-78
2023/05/29 00:42:38;;;;;;;7.35;4.60;;;;;;;11.30;67.68;101586.53;839935;23;1070;-78
2023/05/29 00:42:59;;;;;;;9.75;4.90;;;;;;;11.30;67.53;101589.13;845366;23;1110;-78
2023/05/29 00:43:20;;;;;;;11.33;5.03;;;;;;;11.31;67.56;101585.69;839843;23;1267;-78
2023/05/29 00:43:41;;;;;;;10.20;4.72;;;;;;;11.37;67.69;101599.88;838970;23;1143;-77
2023/05/29 00:44:02;;;;;;;8.70;4.60;;;;;;;11.35;67.74;101598.03;835761;23;1098;-78
2023/05/29 00:44:23;;;;;;;8.80;4.47;;;;;;;11.30;67.59;101594.38;836068;23;1130;-78
2023/05/29 00:44:44;;;;;;;10.13;4.50;;;;;;;11.28;67.69;101586.47;837087;23;942;-78
2023/05/29 00:45:05;;;;;;;9.80;4.70;;;;;;;11.34;67.76;101606.69;839944;23;1255;-78
2023/05/29 00:45:26;;;;;;;11.27;4.68;;;;;;;11.27;67.61;101584.69;839994;23;1232;-77
2023/05/29 00:45:47;;;;;;;12.13;4.97;;;;;;;11.32;67.56;101600.53;839536;23;1150;-77
2023/05/29 00:46:10;;;;;;;13.15;4.90;;;;;;;11.31;67.54;101599.63;845489;23;998;-78
2023/05/29 00:46:32;;;;;;;10.48;4.60;;;;;;;11.28;67.86;101590.78;838893;23;1349;-78
2023/05/29 00:46:53;;;;;;;9.48;4.32;;;;;;;11.28;67.55;101596.00;834139;23;1373;-78
2023/05/29 00:47:13;;;;;;;10.37;4.50;;;;;;;11.35;67.61;101609.38;835970;23;1010;-79
2023/05/29 00:47:34;;;;;;;11.97;4.67;;;;;;;11.35;67.86;101605.88;841343;23;787;-78
2023/05/29 00:47:55;;;;;;;12.68;4.68;;;;;;;11.24;67.74;101595.91;839620;23;1204;-77
2023/05/29 00:48:16;;;;;;;10.55;4.57;;;;;;;11.27;67.63;101595.13;843962;23;1134;-77
2023/05/29 00:48:37;;;;;;;9.00;4.40;;;;;;;11.36;67.64;101610.25;839932;23;862;-77
2023/05/29 00:49:02;;;;;;;9.85;4.68;;;;;;;11.36;67.45;101610.25;837296;23;1089;-78
2023/05/29 00:49:24;;;;;;;11.43;4.68;;;;;;;11.32;67.69;101604.03;841527;23;856;-78
2023/05/29 00:49:44;;;;;;;12.32;4.60;;;;;;;11.29;67.51;101598.69;838865;23;1091;-79
2023/05/29 00:50:06;;;;;;;11.80;4.32;;;;;;;11.29;67.54;101603.03;836005;23;1175;-78
2023/05/29 00:50:26;;;;;;;9.90;4.13;;;;;;;11.27;67.26;101595.13;837609;23;897;-78
2023/05/29 00:50:47;;;;;;;8.10;4.00;;;;;;;11.26;67.35;101593.34;841175;23;1034;-78
2023/05/29 00:51:11;;;;;;;8.68;3.97;;;;;;;11.25;67.70;101599.41;841506;23;1014;-78
2023/05/29 00:51:32;;;;;;;9.27;4.05;;;;;;;11.31;67.39;101606.59;844128;23;1328;-78
2023/05/29 00:51:55;;;;;;;9.60;4.07;;;;;;;11.31;67.34;101609.22;841049;23;1903;-78
2023/05/29 00:52:17;;;;;;;9.60;4.30;;;;;;;11.22;67.30;101597.56;843122;23;1209;-78
2023/05/29 00:52:39;;;;;;;9.95;4.30;;;;;;;11.31;67.41;101617.06;839905;23;1218;-78
2023/05/29 00:53:01;;;;;;;11.25;4.40;;;;;;;11.16;67.26;101593.81;839781;23;1266;-78
2023/05/29 00:53:23;;;;;;;10.98;4.40;;;;;;;11.21;67.49;101594.91;836018;23;1328;-77
2023/05/29 00:53:45;;;;;;;12.15;4.70;;;;;;;11.20;67.11;101596.59;838374;23;1031;-77
2023/05/29 00:54:07;;;;;;;11.38;4.60;;;;;;;11.18;67.24;101595.66;841442;23;1119;-78
2023/05/29 00:54:32;;;;;;;12.25;4.55;;;;;;;11.26;67.19;101610.75;843474;23;1343;-78
2023/05/29 00:54:55;;;;;;;11.23;4.22;;;;;;;11.15;67.10;101597.25;845061;23;1004;-78
2023/05/29 00:55:16;;;;;;;11.13;4.10;;;;;;;11.23;67.11;101607.19;851164;23;1366;-78
2023/05/29 00:55:37;;;;;;;9.80;4.00;;;;;;;11.15;67.20;101599.88;853737;23;688;-78
2023/05/29 00:56:00;;;;;;;10.13;4.30;;;;;;;11.20;67.12;101612.28;853364;23;1021;-79
2023/05/29 00:56:21;;;;;;;10.00;4.13;;;;;;;11.13;67.16;101602.44;852210;23;1381;-78
2023/05/29 00:56:43;;;;;;;11.85;4.22;;;;;;;11.14;66.97;101603.31;843271;23;1242;-77
2023/05/29 00:57:04;;;;;;;11.63;4.20;;;;;;;11.06;67.01;101587.38;839721;23;1158;-78
2023/05/29 00:57:26;;;;;;;11.25;4.15;;;;;;;11.16;67.06;101613.00;840155;23;1090;-78
2023/05/29 00:57:49;;;;;;;8.95;3.92;;;;;;;11.18;67.09;101616.56;843607;23;1074;-79
2023/05/29 00:58:10;;;;;;;8.80;3.90;;;;;;;11.10;66.92;101607.53;845564;23;956;-80
2023/05/29 00:58:31;;;;;;;8.38;4.13;;;;;;;11.11;67.06;101606.69;843291;23;1358;-78
2023/05/29 00:58:53;;;;;;;8.52;4.53;;;;;;;11.10;67.16;101611.06;839703;23;1178;-79
2023/05/29 00:59:13;;;;;;;10.27;4.60;;;;;;;11.15;67.36;101619.06;839550;23;1096;-78
2023/05/29 00:59:35;;;;;;;14.70;4.45;;;;;;;11.04;67.29;101600.34;845550;23;828;-78
2023/05/29 00:59:56;;;;;;;14.05;4.30;;;;;;;11.11;67.15;101622.38;839801;23;1196;-78
2023/05/29 01:00:18;;;;;;;12.63;4.20;;;;;;;11.07;67.20;101597.84;840097;23;1213;-79
2023/05/29 01:00:39;;;;;;;8.45;3.95;;;;;;;11.11;67.23;101617.16;835956;23;1073;-78
2023/05/29 01:01:01;;;;;;;9.30;4.22;;;;;;;11.05;67.06;101603.88;837147;23;1037;-78
2023/05/29 01:01:22;;;;;;;9.25;4.30;;;;;;;11.05;67.30;101609.97;837345;23;866;-78
2023/05/29 01:01:43;;;;;;;9.52;4.45;;;;;;;11.03;67.13;101600.28;834699;23;1088;-79
2023/05/29 01:02:04;;;;;;;9.18;4.30;;;;;;;11.01;67.22;101607.16;835940;23;1134;-78
2023/05/29 01:02:25;;;;;;;8.40;4.20;;;;;;;11.06;67.00;101610.88;839917;23;1177;-78
2023/05/29 01:02:46;;;;;;;7.80;4.13;;;;;;;10.99;67.05;101606.22;840916;23;986;-77
2023/05/29 01:03:08;;;;;;;8.88;4.25;;;;;;;11.04;67.14;101613.41;835834;23;1259;-78
2023/05/29 01:03:29;;;;;;;11.63;4.53;;;;;;;11.01;67.18;101612.41;841336;23;794;-78
2023/05/29 01:03:53;;;;;;;11.73;4.70;;;;;;;11.06;67.08;101621.31;842110;23;1040;-78
2023/05/29 01:04:15;;;;;;;11.43;4.80;;;;;;;11.03;67.12;101621.19;847139;23;974;-78
2023/05/29 01:04:36;;;;;;;10.77;4.55;;;;;;;10.95;67.23;101606.09;843949;23;1110;-79
2023/05/29 01:04:57;;;;;;;11.07;4.47;;;;;;;10.91;67.30;101611.13;846858;23;1004;-78
2023/05/29 01:05:19;;;;;;;10.10;4.47;;;;;;;10.96;67.42;101614.81;843939;23;1227;-78
2023/05/29 01:05:40;;;;;;;10.38;4.20;;;;;;;10.87;67.47;101604.88;845213;23;994;-79
2023/05/29 01:06:03;;;;;;;10.85;4.10;;;;;;;10.85;67.41;101601.34;845241;23;1016;-78
2023/05/29 01:06:25;;;;;;;11.95;3.92;;;;;;;10.92;67.30;101607.69;836074;23;1180;-78
2023/05/29 01:06:46;;;;;;;10.60;4.25;;;;;;;10.86;67.36;101603.13;834685;23;1070;-78
2023/05/29 01:07:09;;;;;;;10.40;4.80;;;;;;;10.87;67.31;101620.56;841384;23;958;-78
2023/05/29 01:07:30;;;;;;;9.52;4.88;;;;;;;10.94;67.34;101632.16;841557;23;762;-79
2023/05/29 01:07:50;;;;;;;11.02;4.95;;;;;;;10.83;67.49;101613.44;847805;23;1065;-78
2023/05/29 01:08:12;;;;;;;14.43;4.72;;;;;;;10.87;67.51;101617.06;849562;23;1047;-78
2023/05/29 01:08:33;;;;;;;16.23;4.90;;;;;;;10.88;67.51;101622.34;848162;23;1319;-78
2023/05/29 01:08:53;;;;;;;14.13;4.72;;;;;;;10.86;67.49;101618.78;845224;23;1001;-78
2023/05/29 01:09:16;;;;;;;10.63;4.57;;;;;;;10.85;67.45;101616.09;846653;23;1223;-78
2023/05/29 01:09:38;;;;;;;9.30;4.30;;;;;;;10.89;67.37;101624.16;839857;23;1317;-78
2023/05/29 01:09:59;;;;;;;8.65;4.18;;;;;;;10.91;67.65;101632.94;839886;23;1283;-78
2023/05/29 01:10:21;;;;;;;9.75;4.32;;;;;;;10.81;67.56;101616.00;843971;23;1298;-78
2023/05/29 01:10:42;;;;;;;10.45;4.28;;;;;;;10.89;67.30;101633.69;842595;23;1148;-78
2023/05/29 01:11:19;;;;;;;12.30;4.20;;;;;;;10.85;67.67;101626.53;849442;23;1130;-79
2023/05/29 01:11:58;;;;;;;14.07;4.75;;;;;;;10.77;67.26;101621.03;845153;23;1893;-79
2023/05/29 01:12:44;;;;;;;12.10;4.90;;;;;;;10.86;67.57;101634.44;847933;23;1391;-78
2023/05/29 01:13:18;;;;;;;13.27;4.82;;;;;;;10.80;67.70;101628.97;845286;23;1061;-79
2023/05/29 01:13:44;;;;;;;12.80;4.70;;;;;;;10.82;67.52;101638.66;845755;23;1179;-78
2023/05/29 01:14:10;;;;;;;12.15;4.18;;;;;;;10.79;67.70;101632.41;839812;23;1166;-78
2023/05/29 01:14:42;;;;;;;11.90;4.10;;;;;;;10.74;67.71;101624.41;837388;23;815;-79
2023/05/29 01:15:29;;;;;;;11.50;4.30;;;;;;;10.73;67.71;101621.72;839951;23;1161;-79
2023/05/29 01:16:35;;;;;;;9.88;4.20;;;;;;;10.80;67.62;101645.53;844358;23;1256;-78
2023/05/29 01:17:03;;;;;;;9.82;4.30;;;;;;;10.79;67.45;101637.63;837033;23;1024;-79
2023/05/29 01:17:33;;;;;;;10.63;4.60;;;;;;;10.70;67.57;101627.72;827977;23;1951;-78
2023/05/29 01:17:54;;;;;;;10.63;4.78;;;;;;;10.79;67.50;101643.75;836053;23;985;-78
2023/05/29 01:18:17;;;;;;;9.88;4.40;;;;;;;10.78;67.64;101647.22;841446;23;1001;-79
2023/05/29 01:18:56;;;;;;;9.70;4.00;;;;;;;10.76;67.74;101648.84;837263;23;893;-78
2023/05/29 01:19:41;;;;;;;12.45;4.45;;;;;;;10.75;67.65;101651.41;837681;23;1288;-78
2023/05/29 01:20:13;;;;;;;9.90;4.00;;;;;;;10.65;67.57;101627.53;841462;23;1217;-79
2023/05/29 01:20:48;;;;;;;10.40;4.13;;;;;;;10.76;67.57;101648.84;845449;23;850;-79
2023/05/29 01:21:47;;;;;;;13.65;5.05;;;;;;;10.66;67.69;101629.31;839935;23;1033;-78
2023/05/29 01:22:35;;;;;;;9.90;3.92;;;;;;;10.64;67.75;101633.56;827941;23;1246;-77
2023/05/29 01:23:07;;;;;;;11.70;3.90;;;;;;;10.74;67.70;101653.13;838744;23;1113;-77
2023/05/29 01:23:47;;;;;;;8.32;3.90;;;;;;;10.63;67.36;101630.91;841400;23;825;-79
2023/05/29 01:24:23;;;;;;;10.07;4.20;;;;;;;10.65;67.60;101643.19;847790;23;1207;-79
2023/05/29 01:24:55;;;;;;;11.45;4.00;;;;;;;10.60;67.43;101631.66;843816;23;1261;-78
2023/05/29 01:25:45;;;;;;;9.13;4.00;;;;;;;10.69;67.28;101650.31;839969;23;1960;-78
2023/05/29 01:26:06;;;;;;;10.02;3.88;;;;;;;10.68;67.24;101658.06;834222;23;1227;-78
2023/05/29 01:26:47;;;;;;;11.00;4.15;;;;;;;10.65;67.43;101651.03;837604;23;704;-78
2023/05/29 01:27:10;;;;;;;11.88;4.30;;;;;;;10.52;67.49;101633.06;839940;23;2115;-78
2023/05/29 01:27:32;;;;;;;11.35;4.10;;;;;;;10.64;67.44;101653.56;839955;23;1459;-79
2023/05/29 01:27:54;;;;;;;12.18;4.00;;;;;;;10.57;67.58;101641.97;841431;23;1097;-80
2023/05/29 01:28:21;;;;;;;9.60;3.90;;;;;;;10.47;67.44;101629.34;841852;23;1077;-78
2023/05/29 01:28:47;;;;;;;8.90;3.55;;;;;;;10.52;67.52;101643.50;839495;23;1381;-77
2023/05/29 01:29:12;;;;;;;9.07;3.70;;;;;;;10.57;67.65;101647.19;839702;23;1194;-78
2023/05/29 01:29:34;;;;;;;10.98;4.10;;;;;;;10.44;67.62;101626.63;849147;23;1063;-78
2023/05/29 01:29:58;;;;;;;10.13;4.22;;;;;;;10.43;67.65;101632.69;849292;23;912;-78
2023/05/29 01:30:19;;;;;;;10.10;3.90;;;;;;;10.40;67.75;101638.66;851940;23;1248;-78
2023/05/29 01:30:41;;;;;;;10.27;3.70;;;;;;;10.40;67.99;101634.31;847655;23;1167;-77
2023/05/29 01:31:03;;;;;;;10.13;3.55;;;;;;;10.49;67.77;101648.56;845232;23;1171;-79
2023/05/29 01:31:26;;;;;;;10.10;3.50;;;;;;;10.50;67.87;101647.78;845415;23;871;-78
2023/05/29 01:31:47;;;;;;;9.63;3.60;;;;;;;10.52;67.85;101653.94;847560;23;1956;-77
2023/05/29 01:32:11;;;;;;;11.13;4.13;;;;;;;10.43;67.71;101646.59;843845;23;1208;-78
2023/05/29 01:32:32;;;;;;;11.45;4.30;;;;;;;10.41;67.75;101640.44;842352;23;1188;-78
2023/05/29 01:32:53;;;;;;;13.60;4.60;;;;;;;10.36;67.59;101641.94;837248;23;883;-78
2023/05/29 01:33:14;;;;;;;14.05;4.43;;;;;;;10.33;68.31;101647.91;839940;23;1344;-79
2023/05/29 01:33:40;;;;;;;11.07;3.67;;;;;;;10.42;67.99;101652.66;843855;23;1134;-78
2023/05/29 01:34:01;;;;;;;10.93;3.67;;;;;;;10.40;68.03;101652.56;845344;23;822;-78
2023/05/29 01:34:22;;;;;;;9.35;3.63;;;;;;;10.40;68.02;101649.97;848226;23;1205;-78
2023/05/29 01:34:42;;;;;;;9.45;3.90;;;;;;;10.39;68.06;101650.78;845104;23;916;-79
2023/05/29 01:35:04;;;;;;;9.40;3.87;;;;;;;10.33;68.10;101642.69;843978;23;1187;-79
2023/05/29 01:35:25;;;;;;;12.10;4.22;;;;;;;10.36;67.97;101649.78;839544;23;1423;-78
2023/05/29 01:35:49;;;;;;;12.57;4.30;;;;;;;10.43;68.00;101661.38;849183;23;979;-78
2023/05/29 01:36:11;;;;;;;11.48;4.03;;;;;;;10.40;68.06;101651.69;843521;23;1230;-78
2023/05/29 01:36:32;;;;;;;11.32;3.90;;;;;;;10.35;67.96;101640.16;847340;23;1142;-78
2023/05/29 01:36:53;;;;;;;11.65;4.18;;;;;;;10.33;67.88;101642.69;843066;23;1279;-78
2023/05/29 01:37:14;;;;;;;11.85;4.47;;;;;;;10.31;68.25;101641.75;844016;23;1276;-79
2023/05/29 01:37:34;;;;;;;10.93;4.32;;;;;;;10.34;68.08;101644.50;839725;23;1189;-78
2023/05/29 01:37:55;;;;;;;11.48;4.15;;;;;;;10.34;68.10;101649.72;835753;23;1189;-78
2023/05/29 01:38:16;;;;;;;12.10;4.25;;;;;;;10.37;68.26;101659.38;845386;23;972;-79
2023/05/29 01:38:38;;;;;;;11.88;4.38;;;;;;;10.32;67.88;101640.91;844131;23;1360;-79
2023/05/29 01:39:00;;;;;;;11.63;4.60;;;;;;;10.34;68.10;101643.59;845212;23;771;-79
2023/05/29 01:39:21;;;;;;;13.40;4.55;;;;;;;10.36;67.91;101648.06;841402;23;1195;-79
2023/05/29 01:39:42;;;;;;;13.32;4.38;;;;;;;10.32;68.01;101635.69;840059;23;1282;-78
2023/05/29 01:40:04;;;;;;;13.25;4.20;;;;;;;10.32;68.12;101643.53;839797;23;1120;-78
2023/05/29 01:40:25;;;;;;;12.85;4.05;;;;;;;10.36;68.09;101642.84;840359;23;1813;-79
2023/05/29 01:40:47;;;;;;;11.70;4.10;;;;;;;10.32;68.14;101645.25;838463;23;1479;-78
2023/05/29 01:41:09;;;;;;;10.02;3.88;;;;;;;10.37;68.29;101651.56;839862;23;1491;-79
2023/05/29 01:41:31;;;;;;;9.45;3.90;;;;;;;10.35;68.22;101654.13;838546;23;1206;-78
2023/05/29 01:41:53;;;;;;;10.32;3.90;;;;;;;10.25;68.13;101633.66;839850;23;1191;-79
2023/05/29 01:42:15;;;;;;;9.25;3.92;;;;;;;10.28;68.01;101644.25;847228;23;1485;-78
2023/05/29 01:42:35;;;;;;;9.35;4.03;;;;;;;10.36;68.15;101661.13;839544;23;1275;-78
2023/05/29 01:42:56;;;;;;;12.73;4.30;;;;;;;10.27;68.31;101639.84;841247;23;1087;-79
2023/05/29 01:43:17;;;;;;;13.90;4.78;;;;;;;10.28;67.89;101642.50;839963;23;1054;-79
2023/05/29 01:43:38;;;;;;;14.20;4.65;;;;;;;10.37;68.18;101649.84;839781;23;1268;-78
2023/05/29 01:44:00;;;;;;;10.32;4.28;;;;;;;10.36;67.95;101663.72;841362;23;863;-79
2023/05/29 01:44:23;;;;;;;11.70;4.10;;;;;;;10.27;68.24;101639.84;848012;23;1172;-79
2023/05/29 01:44:45;;;;;;;12.18;4.20;;;;;;;10.24;68.26;101631.88;838164;23;1420;-79
2023/05/29 01:45:11;;;;;;;12.68;4.03;;;;;;;10.26;68.43;101654.59;839812;23;1211;-78
2023/05/29 01:45:33;;;;;;;13.00;3.97;;;;;;;10.10;68.26;101634.75;841158;23;1031;-79
2023/05/29 01:45:55;;;;;;;10.80;4.00;;;;;;;10.14;68.51;101635.78;839745;23;1353;-78
2023/05/29 01:46:17;;;;;;;11.73;4.05;;;;;;;10.21;68.70;101652.59;836662;23;1114;-79
2023/05/29 01:46:42;;;;;;;12.32;4.60;;;;;;;10.04;68.85;101644.91;839605;23;1357;-79
2023/05/29 01:47:03;;;;;;;11.88;4.35;;;;;;;10.04;68.97;101655.34;835207;23;1164;-78
2023/05/29 01:47:25;;;;;;;8.95;4.13;;;;;;;9.98;69.28;101650.75;835898;23;1506;-78
2023/05/29 01:47:46;;;;;;;12.50;4.30;;;;;;;10.00;69.36;101642.97;836998;23;1080;-78
2023/05/29 01:48:08;;;;;;;14.75;4.90;;;;;;;10.12;68.97;101658.28;837242;23;993;-78
2023/05/29 01:48:30;;;;;;;16.73;5.53;;;;;;;10.07;69.00;101658.06;841443;23;1009;-79